createdAt,value
2022-07-27T00:04:51.822Z,22.60
2022-07-27T00:16:52.254Z,22.54
2022-07-27T00:28:52.680Z,22.42
2022-07-27T00:40:53.127Z,22.47
2022-07-27T00:52:53.559Z,22.36
2022-07-27T01:04:57.051Z,21.18
2022-07-27T01:16:54.454Z,20.04
2022-07-27T01:28:54.926Z,21.68
2022-07-27T01:40:55.413Z,21.00
2022-07-27T01:52:55.833Z,21.66
2022-07-27T02:04:56.357Z,21.81
2022-07-27T02:16:56.765Z,19.31
2022-07-27T02:28:57.244Z,20.63
2022-07-27T02:40:57.662Z,21.21
2022-07-27T02:52:58.134Z,21.11
2022-07-27T03:04:58.570Z,19.43
2022-07-27T03:16:59.050Z,20.34
2022-07-27T03:28:59.501Z,21.07
2022-07-27T03:40:59.913Z,20.98
2022-07-27T03:53:00.355Z,20.45
2022-07-27T04:05:00.853Z,18.91
2022-07-27T04:17:01.417Z,18.32
2022-07-27T04:29:01.764Z,18.28
2022-07-27T04:41:02.223Z,19.06
2022-07-27T04:53:02.694Z,19.92
2022-07-27T05:05:03.122Z,20.93
2022-07-27T05:17:05.109Z,20.38
2022-07-27T05:29:04.005Z,20.94
2022-07-27T05:41:04.527Z,22.56
2022-07-27T05:53:04.938Z,21.73
2022-07-27T06:05:05.384Z,21.62
2022-07-27T06:17:05.859Z,23.19
2022-07-27T06:29:09.940Z,23.41
2022-07-27T06:41:06.766Z,23.72
2022-07-27T06:53:07.208Z,24.64
2022-07-27T07:05:07.649Z,25.54
2022-07-27T07:17:08.118Z,26.26
2022-07-27T07:29:08.778Z,25.63
2022-07-27T07:41:09.052Z,26.27
2022-07-27T07:53:09.527Z,27.05
2022-07-27T08:05:09.955Z,26.83
2022-07-27T08:17:10.365Z,29.49
2022-07-27T08:29:13.815Z,29.87
2022-07-27T08:41:11.328Z,28.48
2022-07-27T08:53:11.793Z,30.81
2022-07-27T09:05:12.230Z,30.25
2022-07-27T09:17:47.185Z,29.86
2022-07-27T09:29:13.354Z,29.07
2022-07-27T09:41:13.613Z,29.14
2022-07-27T09:53:41.528Z,30.96
2022-07-27T10:05:14.602Z,30.43
2022-07-27T10:17:14.960Z,32.50
2022-07-27T10:29:15.428Z,31.04
2022-07-27T10:41:15.888Z,31.91
2022-07-27T10:53:16.324Z,33.03
2022-07-27T11:17:50.823Z,34.69
2022-07-27T11:29:17.702Z,31.27
2022-07-27T11:41:29.192Z,32.18
2022-07-27T11:53:18.623Z,32.97
2022-07-27T12:05:19.308Z,32.49
2022-07-27T12:17:19.651Z,31.35
2022-07-27T12:29:19.991Z,30.93
2022-07-27T12:41:20.445Z,29.63
2022-07-27T12:53:20.927Z,27.46
2022-07-27T13:09:12.626Z,26.86
2022-07-27T13:21:12.725Z,26.35
2022-07-27T13:33:13.151Z,26.43
2022-07-27T13:45:13.624Z,26.38
2022-07-27T13:57:14.097Z,26.54
2022-07-27T14:09:17.736Z,26.64
2022-07-27T14:21:15.044Z,26.47
2022-07-27T14:33:15.455Z,25.32
2022-07-27T14:45:15.888Z,26.68
2022-07-27T14:57:17.413Z,25.26
2022-07-27T15:09:17.256Z,25.76
2022-07-27T15:21:17.286Z,26.08
2022-07-27T15:33:17.725Z,25.76
2022-07-27T15:45:18.201Z,26.06
2022-07-27T15:57:18.650Z,24.69
2022-07-27T16:09:19.083Z,24.76
2022-07-27T16:21:19.519Z,24.67
2022-07-27T16:33:20.009Z,24.64
2022-07-27T16:45:20.476Z,24.73
2022-07-27T16:57:20.866Z,24.90
2022-07-27T17:09:21.373Z,25.18
2022-07-27T17:21:21.806Z,24.64
2022-07-27T17:33:22.288Z,24.50
2022-07-27T17:45:22.736Z,23.81
2022-07-27T17:57:23.181Z,24.22
2022-07-27T18:09:23.640Z,24.43
2022-07-27T18:21:24.119Z,23.58
2022-07-27T18:33:24.576Z,23.51
2022-07-27T18:45:34.471Z,23.77
2022-07-27T18:57:25.411Z,23.43
2022-07-27T19:09:25.963Z,22.77
2022-07-27T19:21:26.379Z,23.40
2022-07-27T19:33:26.814Z,22.88
2022-07-27T19:45:27.877Z,23.06
2022-07-27T19:57:27.763Z,23.12
2022-07-27T20:09:28.189Z,23.00
2022-07-27T20:21:28.651Z,22.50
2022-07-27T20:33:32.809Z,21.49
2022-07-27T20:45:29.592Z,21.97
2022-07-27T20:57:30.010Z,22.56
2022-07-27T21:09:30.447Z,21.81
2022-07-27T21:21:30.908Z,21.61
2022-07-27T21:33:33.777Z,20.88
2022-07-27T21:45:31.871Z,21.28
2022-07-27T21:57:32.254Z,21.62
2022-07-27T22:09:32.715Z,21.16
2022-07-27T22:21:33.185Z,21.76
2022-07-27T22:33:33.594Z,21.68
2022-07-27T22:45:34.131Z,21.52
2022-07-27T22:57:34.528Z,21.48
2022-07-27T23:09:35.036Z,21.21
2022-07-27T23:21:35.457Z,21.15
2022-07-27T23:33:35.918Z,21.42
2022-07-27T23:45:36.363Z,21.54
2022-07-27T23:57:36.840Z,21.32
